Tiempo atmosférico en la estación meteorológica de Miguelañez, Segovia (870 m.)



Fecha
DESCASC
Temp. máxima en grados centígrados (hora)
DESCASC
Temp. mínima en grados centígrados (hora)
DESCASC
Temp. media en grados centígrados
DESCASC
Racha de viento máxima en m/sg (hora)
DESCASC
Velocidad máxima media en intervalos de 10 minutos(hora)
DESCASC
Precipitaciones diarias en mm
DESCASC
Precipitaciones de 00:00 a 06:00 en mm
DESCASC
Precipitaciones de 06:00 a 12:00 en mm
DESCASC
Precipitaciones de 12:00 a 18:00 en mm
DESCASC
Precipitaciones de 18:00 a 24:00 en mm
DESCASC
25-01-2020 10.1 (14:30) 2.7 (01:50) 6.4 8.89 (12:20) 6.39 (12:30) 4.2 0 1 0.8 2.4
24-01-2020 9.2 (16:30) 1.9 (05:20) 5.5 9.72 (15:40) 7.22 (15:40) 1.8 0 1.4 0.4 0
23-01-2020 10.6 (14:10) 0.2 (08:50) 5.4 11.39 (15:00) 8.89 (18:20) 0 0 0 0 0
22-01-2020 9.7 (16:00) 1.6 (00:00) 5.6 10 (00:20) 7.5 (02:10) 0 0 0 0 0
21-01-2020 5.3 (16:10) -2 (-00:0) 1.7 16.11 (16:10) 12.5 (16:10) 1.8 0 0.6 1.2 0
20-01-2020 3.3 (15:50) -2.1 (-00:0) 0.6 15 (02:20) 10.28 (02:20) 0 0 0 0 0
19-01-2020 5.8 (14:00) 0.2 (00:00) 3 23.89 (15:00) 14.72 (15:00) 0.4 0 0.4 0 0
18-01-2020 12 (15:00) 3.2 (00:00) 7.6 16.94 (16:40) 11.94 (16:40) 0.8 0 0 0 0.8
17-01-2020 8.9 (14:30) 3.4 (00:00) 6.1 11.39 (13:30) 8.06 (13:30) 0.6 0.2 0.4 0 0
16-01-2020 12.9 (16:10) 6.7 (00:00) 9.8 14.44 (15:20) 10.56 (15:20) 0.2 0 0 0 0.2
15-01-2020 10.7 (16:10) 5.2 (00:00) 7.9 13.06 (03:50) 9.44 (04:10) 0.4 0 0 0.4 0
14-01-2020 9.7 (16:20) -2.7 (-00:0) 3.5 9.72 (19:50) 7.78 (19:50) 0 0 0 0 0
13-01-2020 8 (16:20) -6 (-00:0) 1 6.67 (22:50) 5.28 (22:50) 0 0 0 0 0
12-01-2020 8.8 (16:50) -6.1 (06:20) 1.4 4.44 (09:50) 3.61 (10:00) 0.2 0 0.2 0 0
11-01-2020 4.3 (16:20) -4.2 (-00:0) 0.1 4.17 (04:20) 3.33 (03:50) 0 0 0 0 0
10-01-2020 7.5 (14:50) -0.8 (-00:0) 3.3 8.06 (16:00) 5.28 (15:30) 0 0 0 0 0
09-01-2020 11.6 (14:30) -0.4 (00:00) 5.6 9.72 (15:00) 6.67 (22:10) 0 0 0 0 0
08-01-2020 10.5 (15:30) -4.4 (-00:0) 3 4.44 (03:40) 3.33 (03:40) 0.2 0 0.2 0 0
07-01-2020 8.5 (16:20) -5.4 (-00:0) 1.5 3.33 (02:50) 2.78 (17:10) 0.2 0 0.2 0 0
06-01-2020 10.7 (16:20) -3.9 (-00:0) 3.4 3.33 (13:30) 2.5 (18:00) 0.2 0 0.2 0 0
05-01-2020 3.2 (00:00) -1.5 (-00:0) 0.9 2.78 (03:50) 2.5 (00:10) 0.2 0 0 0 0.2
04-01-2020 6.2 (16:20) 1 (00:00) 3.6 5.83 (13:40) 3.89 (13:40) 0 0 0 0 0
03-01-2020 6.3 (00:10) 0.7 (00:00) 3.5 6.39 (00:10) 4.72 (00:10) 0 0 0 0 0
02-01-2020 13.4 (16:30) -0.5 (-00:0) 6.4 6.11 (23:59) 4.44 (23:30) 0 0 0 0 0
01-01-2020 14.1 (15:10) -0.3 (00:00) 6.9 5.83 (23:00) 4.17 (08:10) 0 0 0 0 0
31-12-2019 13.7 (16:50) -0.2 (00:00) 6.7 6.11 (09:00) 4.72 (08:40) 0 0 0 0 0
30-12-2019 -- (--) -- (--) -- -- (--) -- (--) -- 0 0 0 --
29-12-2019 14.2 (16:40) -0.2 (00:00) 7 5.56 (23:00) 4.44 (01:20) 0 0 0 0 0
28-12-2019 9.9 (16:50) -5.2 (-00:0) 2.3 5.56 (21:20) 4.72 (21:20) 0.2 0 0.2 0 0

Gráficas

Temp. máximas Temp. mínimas Temp. medias Precipitaciones Rachas de viento máximas Velocidades máximas media en intervalos de 10 minutos

Datos horarios

Fecha y hora oficial Temperatura (ºC) Velocidad del viento (km/h) Dirección del viento Racha (km/h) Dirección de racha Precipitación (mm) Presión (hPa) Tendencia (hPa) Humedad (%)
2020-01-26 23:00:00 6 12 Sur 16 Sur 0 -- -- 82
2020-01-26 22:00:00 6.3 11 Sur 18 Sur 0 -- -- 79
2020-01-26 21:00:00 6.4 11 Sur 15 Sur 0 -- -- 78
2020-01-26 20:00:00 6 8 Sudoeste 12 Oeste 0 -- -- 81
2020-01-26 19:00:00 6.4 9 Oeste 14 Oeste 0 -- -- 80
2020-01-26 18:00:00 7 12 Oeste 18 Oeste 0 -- -- 75
2020-01-26 17:00:00 7.4 13 Oeste 22 Sudoeste 0 -- -- 72
2020-01-26 16:00:00 7.3 16 Sudoeste 25 Oeste 0 -- -- 71
2020-01-26 15:00:00 7 19 Oeste 29 Oeste 0 -- -- 76
2020-01-26 14:00:00 7 17 Oeste 23 Oeste 0 -- -- 77
2020-01-26 13:00:00 5.7 6 Sudoeste 16 Oeste 0 -- -- 89
2020-01-26 12:00:00 5.4 11 Oeste 15 Oeste 0 -- -- 96
2020-01-26 11:00:00 4 14 Oeste 18 Oeste 0 -- -- 98
2020-01-26 10:00:00 3.7 8 Sudoeste 10 Sudoeste 0 -- -- 99
2020-01-26 09:00:00 3.5 8 Sudoeste 12 Sur 0 -- -- 99
2020-01-26 08:00:00 3.1 8 Sur 11 Sur 0 -- -- 99
2020-01-26 07:00:00 3 2 Sudoeste 13 Oeste 0 -- -- 99
2020-01-26 06:00:00 3.1 11 Oeste 20 Oeste 0 -- -- 99
2020-01-26 05:00:00 3.4 6 Sudoeste 11 Oeste 0 -- -- 99
2020-01-26 04:00:00 3.8 6 Oeste 22 Oeste 0 -- -- 98
2020-01-26 03:00:00 4.3 15 Oeste 21 Oeste 0 -- -- 98
2020-01-26 02:00:00 4.6 12 Oeste 18 Oeste 0 -- -- 98
2020-01-26 01:00:00 4.8 8 Oeste 10 Oeste 0 -- -- 97
2020-01-26 00:00:00 5.3 8 Sudoeste 10 Sudoeste 0.2 -- -- 96
2020-01-25 23:00:00 5.5 7 Sudoeste 9 Sudoeste 0 -- -- 95
2020-01-25 22:00:00 5.6 3 Sudoeste 7 Oeste 0.2 -- -- 96
2020-01-25 21:00:00 5.3 5 Oeste 10 Oeste 0.8 -- -- 95
2020-01-25 20:00:00 5.7 8 Noroeste 12 Noroeste 0 -- -- 93
2020-01-25 19:00:00 6.6 0 Calma 8 Noroeste 1.2 -- -- 90
2020-01-25 18:00:00 7.1 10 Noroeste 20 Sur 0.8 -- -- 87
2020-01-25 17:00:00 8.5 14 Sur 21 Sur 0 -- -- 73
2020-01-25 16:00:00 9 15 Sur 27 Sur 0 -- -- 73
2020-01-25 15:00:00 9.4 13 Sur 29 Sur 0 -- -- 67
2020-01-25 14:00:00 9 18 Sur 28 Sur 0 -- -- 73
2020-01-25 13:00:00 8.4 17 Sur 32 Sur 0 -- -- 79
2020-01-25 12:00:00 6.8 17 Sudeste 24 Sudeste 0 -- -- 89
2020-01-25 11:00:00 5.5 18 Sudeste 23 Sudeste 0.6 -- -- 90
2020-01-25 10:00:00 3.6 3 Sudeste 6 Sudeste 0 -- -- 95
2020-01-25 09:00:00 3.4 2 Oeste 4 Sudoeste 0 -- -- 92
2020-01-25 08:00:00 3.6 3 Sudoeste 6 Sudeste 0.2 -- -- 90
2020-01-25 07:00:00 3.6 0 Calma 5 Este 0.2 -- -- 89
2020-01-25 06:00:00 3.9 7 Sudeste 11 Este 0 -- -- 88
2020-01-25 05:00:00 3 4 Sudeste 12 Sudeste 0 -- -- 92
2020-01-25 04:00:00 3.2 10 Sudeste 14 Sudeste 0 -- -- 91
2020-01-25 03:00:00 3 4 Sudeste 9 Sudeste 0 -- -- 90
2020-01-25 02:00:00 2.9 4 Sudeste 9 Sudeste 0 -- -- 91
2020-01-25 01:00:00 3.2 10 Sudeste 15 Este 0 -- -- 90
2020-01-25 00:00:00 3.5 10 Sudeste 19 Sudeste 0 -- -- 89
2020-01-24 23:00:00 4.1 12 Sudeste 17 Sudeste 0 -- -- 85
2020-01-24 22:00:00 4.9 3 Sur 10 Sudoeste 0 -- -- 83
2020-01-24 21:00:00 5.1 8 Sur 14 Sur 0 -- -- 81
2020-01-24 20:00:00 6 10 Sur 18 Sur 0 -- -- 79
2020-01-24 19:00:00 6.7 14 Sur 27 Sur 0 -- -- 78
2020-01-24 18:00:00 7.4 14 Sur 28 Sur 0 -- -- 75
2020-01-24 17:00:00 8.5 23 Sur 32 Sur 0 -- -- 70
2020-01-24 16:00:00 8.6 21 Sur 35 Sur 0.2 -- -- 73
2020-01-24 15:00:00 8.3 26 Sudeste 33 Sudeste 0 -- -- 77
2020-01-24 14:00:00 7.9 23 Sur 32 Sur 0 -- -- 75
2020-01-24 13:00:00 6.6 5 Sudeste 21 Sur 0.2 -- -- 86
2020-01-24 12:00:00 5.7 14 Sur 21 Sur 0.6 -- -- 87
2020-01-24 11:00:00 5.1 11 Sur 14 Sur 0.4 -- -- 92
2020-01-24 10:00:00 4.2 14 Sudeste 18 Este 0.4 -- -- 91
2020-01-24 09:00:00 3.2 2 Este 6 Sudeste 0 -- -- 91
2020-01-24 08:00:00 3.2 2 Este 6 Sudeste 0 -- -- 89
2020-01-24 07:00:00 3.3 3 Sudoeste 8 Sudoeste 0 -- -- 88
2020-01-24 06:00:00 2.2 3 Este 9 Sudoeste 0 -- -- 91
2020-01-24 05:00:00 2.4 5 Noroeste 9 Sudeste 0 -- -- 89
2020-01-24 04:00:00 3.4 4 Nordeste 13 Sudeste 0 -- -- 83
2020-01-24 03:00:00 3 6 Este 12 Nordeste 0 -- -- 87
2020-01-24 02:00:00 4 5 Nordeste 20 Sudeste 0 -- -- 81
2020-01-24 01:00:00 3.5 15 Sudeste 20 Sudeste 0 -- -- 84
2020-01-24 00:00:00 2.7 9 Sudeste 14 Sudeste 0 -- -- 86
2020-01-23 23:00:00 3.6 8 Sudeste 17 Este 0 -- -- 81
2020-01-23 22:00:00 4.7 9 Sur 21 Este 0 -- -- 79
2020-01-23 21:00:00 6.5 18 Este 31 Sudeste 0 -- -- 68
2020-01-23 20:00:00 6.2 23 Sudeste 31 Sudeste 0 -- -- 72
2020-01-23 19:00:00 6.9 21 Sudeste 40 Sudeste 0 -- -- 70
2020-01-23 18:00:00 7.8 26 Sur 36 Sur 0 -- -- 68
2020-01-23 17:00:00 9.4 27 Sur 36 Sur 0 -- -- 61
2020-01-23 16:00:00 10 25 Sur 40 Sur 0 -- -- 61
2020-01-23 15:00:00 10.3 29 Sur 41 Sur 0 -- -- 56
2020-01-23 14:00:00 10.5 16 Sur 32 Sudeste 0 -- -- 60
2020-01-23 13:00:00 9.9 17 Sur 28 Sudeste 0 -- -- 59
2020-01-23 12:00:00 5.3 6 Este 10 Este 0 -- -- 81
2020-01-23 11:00:00 2.7 5 Sudeste 14 Sudeste 0 -- -- 87
2020-01-23 10:00:00 1.3 11 Sudeste 15 Sudeste 0 -- -- 90
2020-01-23 09:00:00 0.2 3 Nordeste 9 Sudeste 0 -- -- 89
2020-01-23 08:00:00 0.8 4 Este 11 Nordeste 0 -- -- 87
2020-01-23 07:00:00 1.4 4 Nordeste 11 Nordeste 0 -- -- 87
2020-01-23 06:00:00 1.8 0 Calma 18 Sudeste 0 -- -- 85
2020-01-23 05:00:00 2.7 18 Sudeste 22 Sudeste 0 -- -- 87
2020-01-23 04:00:00 3.3 17 Sudeste 22 Sudeste 0 -- -- 86
2020-01-23 03:00:00 2.7 5 Sudeste 18 Este 0 -- -- 90
2020-01-23 02:00:00 2.8 12 Nordeste 17 Este 0 -- -- 89
2020-01-23 01:00:00 3.2 4 Este 11 Sudeste 0 -- -- 89
2020-01-23 00:00:00 3.3 3 Nordeste 10 Nordeste 0 -- -- 87
2020-01-22 23:00:00 3.9 6 Nordeste 21 Este 0 -- -- 84
2020-01-22 22:00:00 4.1 18 Este 24 Sudeste 0 -- -- 84
2020-01-22 21:00:00 4.5 18 Nordeste 23 Este 0 -- -- 83
2020-01-22 20:00:00 5.2 17 Este 22 Este 0 -- -- 80
2020-01-22 19:00:00 5.4 11 Este 26 Este 0 -- -- 79
2020-01-22 18:00:00 6.6 21 Nordeste 28 Nordeste 0 -- -- 75
2020-01-22 17:00:00 8.7 7 Este 16 Este 0 -- -- 64
2020-01-22 16:00:00 9.7 7 Sudeste 25 Sudeste 0 -- -- 60
2020-01-22 15:00:00 9.5 13 Sudeste 24 Sudeste 0 -- -- 64
2020-01-22 14:00:00 8.8 11 Este 30 Este 0 -- -- 67
2020-01-22 13:00:00 7.6 12 Nordeste 35 Este 0 -- -- 76
2020-01-22 12:00:00 6.5 24 Este 35 Este 0 -- -- 75
2020-01-22 11:00:00 5 14 Este 24 Nordeste 0 -- -- 84
2020-01-22 10:00:00 2.8 20 Nordeste 28 Este 0 -- -- 89
2020-01-22 09:00:00 1.7 9 Este 15 Nordeste 0 -- -- 92
2020-01-22 08:00:00 1.9 10 Nordeste 21 Nordeste 0 -- -- 90
2020-01-22 07:00:00 2.6 16 Nordeste 24 Nordeste 0 -- -- 87
2020-01-22 06:00:00 2.6 20 Nordeste 28 Nordeste 0 -- -- 88
2020-01-22 05:00:00 2.9 22 Nordeste 32 Nordeste 0 -- -- 86
2020-01-22 04:00:00 3.3 25 Nordeste 35 Nordeste 0 -- -- 85
2020-01-22 03:00:00 3.9 25 Nordeste 35 Nordeste 0 -- -- 86
2020-01-22 02:00:00 3.5 24 Nordeste 35 Nordeste 0 -- -- 87
2020-01-22 01:00:00 3.7 22 Nordeste 36 Nordeste 0 -- -- 85
2020-01-22 00:00:00 3.7 29 Nordeste 44 Este 0 -- -- 85
2020-01-21 23:00:00 4.1 36 Este 57 Este 0 -- -- 84
2020-01-21 22:00:00 4.3 39 Nordeste 53 Este 0 -- -- 87
2020-01-21 21:00:00 1.1 9 Nordeste 20 Norte 0 -- -- 93
2020-01-21 20:00:00 1.5 14 Nordeste 34 Norte 0 -- -- 92
2020-01-21 19:00:00 1.7 21 Nordeste 35 Norte 0 -- -- 91
2020-01-21 18:00:00 2.5 24 Nordeste 36 Nordeste 0.8 -- -- 94
2020-01-21 17:00:00 3.8 30 Nordeste 58 Nordeste 0.2 -- -- 87
2020-01-21 16:00:00 5.2 38 Nordeste 58 Nordeste 0 -- -- 79
2020-01-21 15:00:00 4.6 31 Nordeste 44 Nordeste 0 -- -- 78
2020-01-21 14:00:00 4 24 Nordeste 36 Nordeste 0 -- -- 78
2020-01-21 13:00:00 3 20 Nordeste 36 Norte 0.2 -- -- 85
2020-01-21 12:00:00 1.9 22 Nordeste 37 Nordeste 0.6 -- -- 87
2020-01-21 11:00:00 1.2 21 Norte 32 Nordeste 0 -- -- 84
2020-01-21 10:00:00 -0.4 16 Norte 27 Norte 0 -- -- 86
2020-01-21 09:00:00 -1 16 Norte 23 Norte 0 -- -- 87
2020-01-21 08:00:00 -0.6 16 Norte 26 Nordeste 0 -- -- 84
2020-01-21 07:00:00 -0.7 17 Norte 31 Norte 0 -- -- 82
2020-01-21 06:00:00 -0.6 17 Nordeste 27 Norte 0 -- -- 83
2020-01-21 05:00:00 -0.5 19 Norte 30 Nordeste 0 -- -- 85
2020-01-21 04:00:00 -0.7 18 Norte 27 Norte 0 -- -- 86
2020-01-21 03:00:00 -1.1 17 Nordeste 31 Norte 0 -- -- 85
2020-01-21 02:00:00 -1.8 21 Norte 32 Norte 0 -- -- 86
2020-01-21 01:00:00 -1.8 17 Norte 25 Norte 0 -- -- 84
2020-01-21 00:00:00 -1.3 12 Norte 18 Norte 0 -- -- 86
2020-01-20 23:00:00 -1.5 10 Norte 17 Norte 0 -- -- 92
2020-01-20 22:00:00 -1.7 13 Norte 29 Nordeste 0 -- -- 93
2020-01-20 21:00:00 0 15 Norte 27 Norte 0 -- -- 76
2020-01-20 20:00:00 0.3 17 Norte 31 Norte 0 -- -- 70
2020-01-20 19:00:00 0.6 21 Nordeste 38 Norte 0 -- -- 68
2020-01-20 18:00:00 1.2 22 Norte 38 Norte 0 -- -- 64
2020-01-20 17:00:00 2.4 28 Norte 38 Norte 0 -- -- 59
2020-01-20 16:00:00 3.2 28 Norte 40 Norte 0 -- -- 54
2020-01-20 15:00:00 2.4 30 Norte 43 Norte 0 -- -- 55
2020-01-20 14:00:00 2.3 23 Norte 39 Nordeste 0 -- -- 55
2020-01-20 13:00:00 1.3 18 Norte 37 Norte 0 -- -- 56
2020-01-20 12:00:00 1.4 21 Norte 37 Norte 0 -- -- 53
2020-01-20 11:00:00 0 23 Nordeste 37 Nordeste 0 -- -- 61
2020-01-20 10:00:00 -1.3 18 Norte 30 Norte 0 -- -- 70
2020-01-20 09:00:00 -2.1 19 Norte 35 Nordeste 0 -- -- 73
2020-01-20 08:00:00 -1.9 23 Norte 37 Nordeste 0 -- -- 72
2020-01-20 07:00:00 -1.6 25 Norte 47 Norte 0 -- -- 70
2020-01-20 06:00:00 -1.4 29 Norte 46 Nordeste 0 -- -- 68
2020-01-20 05:00:00 -1.3 28 Norte 48 Norte 0 -- -- 68
2020-01-20 04:00:00 -1 32 Norte 53 Norte 0 -- -- 66
2020-01-20 03:00:00 -0.8 28 Norte 54 Nordeste 0 -- -- 66
2020-01-20 02:00:00 -0.5 30 Norte 50 Norte 0 -- -- 64
2020-01-20 01:00:00 0 27 Norte 50 Norte 0 -- -- 64
2020-01-20 00:00:00 0.2 27 Norte 46 Nordeste 0 -- -- 68
2020-01-19 23:00:00 0.4 28 Norte 48 Norte 0 -- -- 65
2020-01-19 22:00:00 0.2 29 Norte 53 Norte 0 -- -- 69
2020-01-19 21:00:00 0.3 29 Norte 57 Norte 0 -- -- 68
2020-01-19 20:00:00 0.7 36 Norte 62 Norte 0 -- -- 66
2020-01-19 19:00:00 1.5 41 Norte 67 Norte 0 -- -- 60
2020-01-19 18:00:00 2.8 40 Norte 67 Norte 0 -- -- 57
2020-01-19 17:00:00 4.1 51 Norte 76 Norte 0 -- -- 57
2020-01-19 16:00:00 5.4 42 Norte 72 Norte 0 -- -- 56
2020-01-19 15:00:00 5.6 53 Norte 86 Norte 0 -- -- 54
2020-01-19 14:00:00 5.8 44 Norte 77 Norte 0 -- -- 58
2020-01-19 13:00:00 5 51 Norte 73 Norte 0 -- -- 67
2020-01-19 12:00:00 4.4 45 Norte 69 Norte 0 -- -- 70
2020-01-19 11:00:00 4.1 51 Norte 77 Norte 0 -- -- 75
2020-01-19 10:00:00 3.7 44 Norte 69 Norte 0.2 -- -- 86
2020-01-19 09:00:00 2.8 25 Norte 41 Norte 0 -- -- 98
2020-01-19 08:00:00 1.7 12 Noroeste 18 Noroeste 0.2 -- -- 98
2020-01-19 07:00:00 1.4 8 Oeste 12 Oeste 0 -- -- 97
2020-01-19 06:00:00 1.5 4 Oeste 9 Oeste 0 -- -- 97
2020-01-19 05:00:00 1.7 5 Oeste 12 Oeste 0 -- -- 96
2020-01-19 04:00:00 2.7 10 Oeste 22 Noroeste 0 -- -- 94
2020-01-19 03:00:00 3.6 15 Noroeste 23 Noroeste 0 -- -- 94
2020-01-19 02:00:00 3.8 13 Oeste 19 Oeste 0 -- -- 94
2020-01-19 01:00:00 4.3 9 Oeste 16 Oeste 0 -- -- 92
2020-01-19 00:00:00 4.6 12 Oeste 21 Oeste 0.2 -- -- 92
2020-01-18 23:00:00 4.6 13 Oeste 24 Oeste 0 -- -- 93
2020-01-18 22:00:00 5.8 18 Oeste 28 Oeste 0 -- -- 88
2020-01-18 21:00:00 6.7 24 Oeste 38 Sudoeste 0 -- -- 88
2020-01-18 20:00:00 7.4 30 Oeste 57 Oeste 0.6 -- -- 90
2020-01-18 19:00:00 9.3 29 Sudoeste 51 Sudoeste 0 -- -- 80
2020-01-18 18:00:00 10.7 34 Sudoeste 52 Sudoeste 0 -- -- 75
2020-01-18 17:00:00 11.6 34 Sudoeste 61 Sudoeste 0 -- -- 74
2020-01-18 16:00:00 12 30 Oeste 40 Oeste 0 -- -- 74
2020-01-18 15:00:00 12 24 Sudoeste 37 Sudoeste 0 -- -- 71
2020-01-18 14:00:00 11.3 19 Sur 33 Sur 0 -- -- 75
2020-01-18 13:00:00 10 18 Sur 33 Sur 0 -- -- 79
2020-01-18 12:00:00 9.1 24 Sur 33 Sur 0 -- -- 80
2020-01-18 11:00:00 7.2 24 Sudeste 32 Sudeste 0 -- -- 87
2020-01-18 10:00:00 5.7 19 Sudeste 24 Sudeste 0 -- -- 89
2020-01-18 09:00:00 4.6 8 Sudeste 17 Sur 0 -- -- 89
2020-01-18 08:00:00 5.4 15 Sur 19 Sudeste 0 -- -- 84
2020-01-18 07:00:00 4.8 16 Sudeste 24 Sudeste 0 -- -- 90
2020-01-18 06:00:00 6.1 12 Sur 25 Sur 0 -- -- 83
2020-01-18 05:00:00 5.6 15 Sur 21 Sur 0 -- -- 80
2020-01-18 04:00:00 4.4 11 Sudoeste 15 Sudoeste 0 -- -- 82
2020-01-18 03:00:00 5.3 7 Sudoeste 16 Sur 0 -- -- 78
2020-01-18 02:00:00 3.7 5 Sudoeste 15 Sudoeste 0 -- -- 86
2020-01-18 01:00:00 3.9 16 Sudoeste 23 Sudoeste 0 -- -- 86
2020-01-18 00:00:00 3.7 14 Sudeste 20 Este 0 -- -- 87
2020-01-17 23:00:00 3.7 11 Sudeste 19 Sudeste 0 -- -- 87
2020-01-17 22:00:00 3.6 15 Sudeste 19 Este 0 -- -- 89
2020-01-17 21:00:00 3.6 4 Sudeste 6 Sudeste 0 -- -- 87
2020-01-17 20:00:00 3.9 3 Sudeste 7 Sudeste 0 -- -- 84
2020-01-17 19:00:00 5.6 0 Calma 9 Noroeste 0 -- -- 78
2020-01-17 18:00:00 7.3 9 Oeste 18 Oeste 0 -- -- 72
2020-01-17 17:00:00 8.5 12 Oeste 26 Oeste 0 -- -- 64
2020-01-17 16:00:00 8.3 19 Oeste 33 Oeste 0 -- -- 66
2020-01-17 15:00:00 8.6 24 Oeste 39 Oeste 0 -- -- 67
2020-01-17 14:00:00 8.5 26 Oeste 41 Oeste 0 -- -- 73
2020-01-17 13:00:00 8 27 Oeste 37 Oeste 0 -- -- 76
2020-01-17 12:00:00 7.4 25 Oeste 33 Sudoeste 0 -- -- 83
2020-01-17 11:00:00 6.7 17 Oeste 26 Oeste 0 -- -- 93
2020-01-17 10:00:00 5.8 16 Sudoeste 29 Oeste 0.2 -- -- 95
2020-01-17 09:00:00 6 21 Sudoeste 29 Sudoeste 0 -- -- 87
2020-01-17 08:00:00 6 18 Sudoeste 27 Sudoeste 0 -- -- 81
2020-01-17 07:00:00 5.6 15 Sudoeste 32 Sur 0.2 -- -- 83
2020-01-17 06:00:00 6.2 19 Sur 33 Sur 0 -- -- 79
2020-01-17 05:00:00 6 15 Sur 24 Sudoeste 0 -- -- 82
2020-01-17 04:00:00 5.4 17 Sudoeste 30 Sudoeste 0 -- -- 83
2020-01-17 03:00:00 5.7 12 Sur 21 Sudoeste 0 -- -- 80
2020-01-17 02:00:00 7 15 Sudoeste 32 Sur 0 -- -- 76
2020-01-17 01:00:00 7.2 15 Sur 22 Sur 0.2 -- -- 79
2020-01-17 00:00:00 7.6 16 Sur 30 Sur 0 -- -- 78
2020-01-16 23:00:00 8.2 21 Sur 35 Sur 0.2 -- -- 73
2020-01-16 22:00:00 9 26 Sur 36 Sur 0 -- -- 65
2020-01-16 21:00:00 9 29 Sur 42 Sur 0 -- -- 67
2020-01-16 20:00:00 8.6 23 Sur 38 Sudeste 0 -- -- 71
2020-01-16 19:00:00 8.6 31 Sudeste 53 Sudeste 0 -- -- 72
2020-01-16 18:00:00 9.3 33 Sur 46 Sudeste 0 -- -- 64
2020-01-16 17:00:00 10.9 29 Sur 44 Sur 0 -- -- 58
2020-01-16 16:00:00 12.3 16 Sudoeste 52 Sur 0 -- -- 58
2020-01-16 15:00:00 12.7 37 Sur 64 Sur 0 -- -- 52
2020-01-16 14:00:00 12.4 35 Sur 51 Sur 0 -- -- 54
2020-01-16 13:00:00 12.2 32 Sur 44 Sur 0 -- -- 64
2020-01-16 12:00:00 11.5 30 Sur 42 Sur 0 -- -- 72
2020-01-16 11:00:00 10.5 30 Sur 45 Sur 0 -- -- 78
2020-01-16 10:00:00 8.7 29 Sudeste 41 Sudeste 0 -- -- 85
2020-01-16 09:00:00 8.5 30 Sudeste 42 Sur 0 -- -- 85
2020-01-16 08:00:00 8.3 32 Sur 41 Sur 0 -- -- 84
2020-01-16 07:00:00 8 26 Sur 35 Sur 0 -- -- 82
2020-01-16 06:00:00 7.5 26 Sur 36 Sur 0 -- -- 84
2020-01-16 05:00:00 7.4 30 Sudeste 36 Sur 0 -- -- 84
2020-01-16 04:00:00 7.7 24 Sur 33 Sur 0 -- -- 84
2020-01-16 03:00:00 8.3 21 Sur 33 Sur 0 -- -- 82
2020-01-16 02:00:00 7.2 26 Sudeste 32 Sur 0 -- -- 85
2020-01-16 01:00:00 7.7 20 Sudeste 30 Sudeste 0 -- -- 84
2020-01-16 00:00:00 6.7 20 Sudeste 23 Sudeste 0 -- -- 87
2020-01-15 23:00:00 6.1 13 Sudeste 28 Sudeste 0 -- -- 85
2020-01-15 22:00:00 7 19 Sudeste 24 Sudeste 0 -- -- 84
2020-01-15 21:00:00 7.6 13 Sur 17 Sur 0 -- -- 82
2020-01-15 20:00:00 8.5 15 Sur 20 Sur 0 -- -- 78
2020-01-15 19:00:00 8.7 13 Sur 18 Sur 0 -- -- 79
2020-01-15 18:00:00 9.6 12 Sur 17 Sur 0 -- -- 77
2020-01-15 17:00:00 10.5 10 Sur 19 Sur 0 -- -- 73
2020-01-15 16:00:00 10.6 13 Sur 22 Sur 0.2 -- -- 73
2020-01-15 15:00:00 9.4 15 Sur 25 Sur 0 -- -- 79
2020-01-15 14:00:00 8.6 13 Sur 23 Sudoeste 0 -- -- 80
2020-01-15 13:00:00 8 12 Sudoeste 28 Sudeste 0.2 -- -- 81
2020-01-15 12:00:00 7.8 24 Sur 35 Sudeste 0 -- -- 77
2020-01-15 11:00:00 7.3 26 Sur 40 Sur 0 -- -- 76
2020-01-15 10:00:00 7.2 27 Sur 42 Sur 0 -- -- 73
2020-01-15 09:00:00 7.3 23 Sur 40 Sur 0 -- -- 70
2020-01-15 08:00:00 6.2 24 Sur 35 Sur 0 -- -- 72
2020-01-15 07:00:00 6 28 Sur 39 Sur 0 -- -- 74
2020-01-15 06:00:00 5.9 25 Sur 37 Sur 0 -- -- 76
2020-01-15 05:00:00 5.6 23 Sur 46 Sur 0 -- -- 81
2020-01-15 04:00:00 5.7 33 Sur 47 Sur 0 -- -- 81
2020-01-15 03:00:00 5.7 32 Sur 45 Sur 0 -- -- 82
2020-01-15 02:00:00 5.8 26 Sur 35 Sudeste 0 -- -- 81
2020-01-15 01:00:00 5.7 26 Sudeste 36 Sur 0 -- -- 80
2020-01-15 00:00:00 5.2 25 Sur 32 Sudeste 0 -- -- 81
2020-01-14 23:00:00 4.6 22 Sur 30 Sur 0 -- -- 78
2020-01-14 22:00:00 5 19 Sur 24 Sudeste 0 -- -- 73
2020-01-14 21:00:00 3.7 2 Norte 30 Sudeste 0 -- -- 79
2020-01-14 20:00:00 4.6 27 Sur 35 Sudeste 0 -- -- 77
2020-01-14 19:00:00 4.8 22 Sudeste 29 Sudeste 0 -- -- 81
2020-01-14 18:00:00 7.6 12 Sur 15 Sur 0 -- -- 69
2020-01-14 17:00:00 9.6 18 Oeste 32 Oeste 0 -- -- 64
2020-01-14 16:00:00 9.3 18 Oeste 33 Oeste 0 -- -- 65
2020-01-14 15:00:00 8.5 19 Oeste 28 Oeste 0 -- -- 70
2020-01-14 14:00:00 7.8 17 Sur 34 Sudeste 0 -- -- 68
2020-01-14 13:00:00 5.6 22 Sudeste 29 Sudeste 0 -- -- 76
2020-01-14 12:00:00 3.9 21 Sudeste 27 Sudeste 0 -- -- 81
2020-01-14 11:00:00 2.5 17 Sudeste 23 Sudeste 0 -- -- 82
2020-01-14 10:00:00 1.5 12 Sur 16 Sur 0 -- -- 89
2020-01-14 09:00:00 -1.2 12 Sudeste 17 Sudoeste 0 -- -- 93
2020-01-14 08:00:00 -2.4 14 Sudoeste 21 Sudoeste 0 -- -- 92
2020-01-14 07:00:00 -2.2 10 Sudeste 17 Sudeste 0 -- -- 89
2020-01-14 06:00:00 -2 7 Sudeste 12 Sudeste 0 -- -- 90
2020-01-14 05:00:00 -1.5 4 Sudeste 9 Sudeste 0 -- -- 91
2020-01-14 04:00:00 -1.3 8 Sudeste 9 Sudeste 0 -- -- 91
2020-01-14 03:00:00 -0.6 7 Sudeste 16 Sur 0 -- -- 89
2020-01-14 02:00:00 1.5 12 Sur 17 Sur 0 -- -- 85
2020-01-14 01:00:00 1.7 13 Sur 20 Sur 0 -- -- 86
2020-01-14 00:00:00 1.6 14 Sudoeste 24 Sudoeste 0 -- -- 82
2020-01-13 23:00:00 1.5 17 Sudoeste 24 Sudoeste 0 -- -- 80
2020-01-13 22:00:00 3.2 14 Sudoeste 19 Sudoeste 0 -- -- 69
2020-01-13 21:00:00 3.1 9 Sudoeste 12 Sudoeste 0 -- -- 70
2020-01-13 20:00:00 4.5 4 Sudoeste 5 Sudoeste 0 -- -- 64
2020-01-13 19:00:00 4.4 3 Sur 11 Sudoeste 0 -- -- 64
2020-01-13 18:00:00 5.5 6 Sudeste 12 Sur 0 -- -- 68
2020-01-13 17:00:00 7.5 8 Sudeste 11 Sudeste 0 -- -- 61
2020-01-13 16:00:00 7.7 4 Sur 10 Sudoeste 0 -- -- 60
2020-01-13 15:00:00 7.5 7 Sur 11 Sudoeste 0 -- -- 63
2020-01-13 14:00:00 6.4 6 Sudoeste 14 Sur 0 -- -- 68
2020-01-13 13:00:00 4 10 Sudoeste 17 Oeste 0 -- -- 77
2020-01-13 12:00:00 0.4 8 Oeste 17 Sudoeste 0 -- -- 89
2020-01-13 11:00:00 -0.9 0 Calma 6 Sur 0 -- -- 96
2020-01-13 10:00:00 -4.3 3 Este 5 Este 0 -- -- 95
2020-01-13 09:00:00 -5.2 4 Noroeste 9 Sudeste 0 -- -- 91
2020-01-13 08:00:00 -4.5 2 Sur 15 Sudeste 0 -- -- 94
2020-01-13 07:00:00 -5.8 0 Calma 4 Sudeste 0 -- -- 96
2020-01-13 06:00:00 -5.5 4 Sudeste 6 Sudeste 0 -- -- 96
2020-01-13 05:00:00 -5.8 4 Sudoeste 8 Oeste 0 -- -- 96
2020-01-13 04:00:00 -5.7 3 Sudeste 6 Este 0 -- -- 96
2020-01-13 03:00:00 -5.3 0 Calma 4 Noroeste 0 -- -- 94
2020-01-13 02:00:00 -3.6 0 Calma 5 Norte 0 -- -- 94
2020-01-13 01:00:00 -2.1 6 Sudeste 11 Sudeste 0 -- -- 93
2020-01-13 00:00:00 -2.1 3 Nordeste 4 Nordeste 0 -- -- 95
2020-01-12 23:00:00 -1.6 0 Calma 7 Este 0 -- -- 94
2020-01-12 22:00:00 -1.1 7 Sudeste 8 Sudeste 0 -- -- 95
2020-01-12 21:00:00 -1.2 0 Calma 8 Oeste 0 -- -- 93
2020-01-12 20:00:00 1.2 5 Oeste 6 Oeste 0 -- -- 86
2020-01-12 19:00:00 3.2 4 Oeste 10 Oeste 0 -- -- 80
2020-01-12 18:00:00 7.2 4 Oeste 7 Noroeste 0 -- -- 56
2020-01-12 17:00:00 8.7 3 Oeste 9 Oeste 0 -- -- 53
2020-01-12 16:00:00 8.6 3 Sudoeste 8 Sudoeste 0 -- -- 54
2020-01-12 15:00:00 7.9 2 Sudeste 6 Sudeste 0 -- -- 60
2020-01-12 14:00:00 5.3 4 Norte 9 Noroeste 0 -- -- 76
2020-01-12 13:00:00 3.6 7 Noroeste 12 Noroeste 0 -- -- 78
2020-01-12 12:00:00 2.1 4 Norte 5 Norte 0.2 -- -- 88
2020-01-12 11:00:00 1.3 2 Nordeste 13 Nordeste 0 -- -- 84
2020-01-12 10:00:00 -2.1 13 Nordeste 16 Nordeste 0 -- -- 90
2020-01-12 09:00:00 -4.3 0 Calma -- -- 0 -- -- 89
2020-01-12 08:00:00 -4.3 0 Calma -- -- 0 -- -- 91
2020-01-12 07:00:00 -4.2 0 Calma -- -- 0 -- -- 95
2020-01-12 06:00:00 -5.7 0 Calma -- -- 0 -- -- 93
2020-01-12 05:00:00 -3.9 0 Calma -- -- 0 -- -- 97
2020-01-12 04:00:00 -5.6 0 Calma -- -- 0 -- -- 97
2020-01-12 03:00:00 -4.8 0 Calma -- -- 0 -- -- 97
2020-01-12 02:00:00 -4.5 0 Calma -- -- 0 -- -- 97
2020-01-12 01:00:00 -4.5 0 Calma -- -- 0 -- -- 97
2020-01-12 00:00:00 -4.2 0 Calma -- -- 0 -- -- 98
2020-01-11 23:00:00 -3.5 0 Calma -- -- 0 -- -- 98
2020-01-11 22:00:00 -2.9 0 Calma -- -- 0 -- -- 98
2020-01-11 21:00:00 -2 0 Calma 6 Nordeste 0 -- -- 97
2020-01-11 20:00:00 -1.1 4 Nordeste 8 Nordeste 0 -- -- 96
2020-01-11 19:00:00 -0.8 4 Nordeste 10 Nordeste 0 -- -- 95
2020-01-11 18:00:00 1.4 8 Norte 10 Norte 0 -- -- 89
2020-01-11 17:00:00 3.7 7 Norte 10 Norte 0 -- -- 87
2020-01-11 16:00:00 4 4 Norte 9 Norte 0 -- -- 96
2020-01-11 15:00:00 2.3 4 Norte 9 Norte 0 -- -- 99
2020-01-11 14:00:00 1.3 2 Sudeste 6 Sudeste 0 -- -- 99
2020-01-11 13:00:00 0.5 0 Calma 6 Oeste 0 -- -- 99
2020-01-11 12:00:00 0 3 Sudeste 6 Sudeste 0 -- -- 99
2020-01-11 11:00:00 -0.2 0 Calma -- -- 0 -- -- 99
2020-01-11 10:00:00 -0.4 0 Calma -- -- 0 -- -- 99
2020-01-11 09:00:00 -0.4 0 Calma -- -- 0 -- -- 99
2020-01-11 08:00:00 -0.4 0 Calma -- -- 0 -- -- 98
2020-01-11 07:00:00 0.1 0 Calma 5 Sur 0 -- -- 98
2020-01-11 06:00:00 0.1 0 Calma 12 Sudeste 0 -- -- 98
2020-01-11 05:00:00 -0.6 8 Sudeste 15 Sudeste 0 -- -- 98
2020-01-11 04:00:00 -1.2 10 Sudeste 15 Sudeste 0 -- -- 97
2020-01-11 03:00:00 -1.1 3 Sudeste 5 Sudeste 0 -- -- 95
2020-01-11 02:00:00 0.2 3 Oeste 8 Sudoeste 0 -- -- 95
2020-01-11 01:00:00 -0.2 5 Oeste 7 Oeste 0 -- -- 94
2020-01-11 00:00:00 0.7 4 Oeste 5 Oeste 0 -- -- 92
2020-01-10 23:00:00 0.9 4 Este 16 Nordeste 0 -- -- 89
2020-01-10 22:00:00 2.9 15 Nordeste 23 Nordeste 0 -- -- 88
2020-01-10 21:00:00 2.5 11 Nordeste 14 Nordeste 0 -- -- 85
2020-01-10 20:00:00 3.8 8 Norte 16 Norte 0 -- -- 80
2020-01-10 19:00:00 5.4 8 Norte 18 Norte 0 -- -- 75
2020-01-10 18:00:00 6.1 11 Norte 20 Norte 0 -- -- 71
2020-01-10 17:00:00 6.6 17 Norte 24 Nordeste 0 -- -- 67
2020-01-10 16:00:00 7.5 17 Norte 29 Norte 0 -- -- 63
2020-01-10 15:00:00 7.1 13 Nordeste 25 Nordeste 0 -- -- 66
2020-01-10 14:00:00 6.5 16 Norte 25 Norte 0 -- -- 71
2020-01-10 13:00:00 4.9 7 Norte 15 Norte 0 -- -- 82
2020-01-10 12:00:00 3.3 3 Oeste 6 Noroeste 0 -- -- 94
2020-01-10 11:00:00 1.8 3 Noroeste 6 Noroeste 0 -- -- 97
2020-01-10 10:00:00 0.6 0 Calma 8 Sudeste 0 -- -- 98
2020-01-10 09:00:00 -0.2 2 Sur 11 Sudoeste 0 -- -- 97
2020-01-10 08:00:00 0.1 5 Oeste 8 Sudoeste 0 -- -- 96
2020-01-10 07:00:00 0.7 3 Oeste 14 Oeste 0 -- -- 96
2020-01-10 06:00:00 0.9 8 Oeste 11 Oeste 0 -- -- 97
2020-01-10 05:00:00 1.4 8 Oeste 14 Sudoeste 0 -- -- 96
2020-01-10 04:00:00 2.3 12 Sudoeste 14 Sudoeste 0 -- -- 95
2020-01-10 03:00:00 3.4 10 Oeste 14 Oeste 0 -- -- 95
2020-01-10 02:00:00 4 9 Oeste 21 Oeste 0 -- -- 93
2020-01-10 01:00:00 4.9 15 Oeste 26 Oeste 0 -- -- 91
2020-01-10 00:00:00 5.4 16 Oeste 26 Oeste 0 -- -- 91
2020-01-09 23:00:00 6.7 19 Oeste 32 Oeste 0 -- -- 88
2020-01-09 22:00:00 8 23 Oeste 31 Oeste 0 -- -- 87
2020-01-09 21:00:00 7.7 14 Oeste 24 Oeste 0 -- -- 92
2020-01-09 20:00:00 9.3 14 Sudoeste 25 Oeste 0 -- -- 88
2020-01-09 19:00:00 9.8 17 Sudoeste 29 Oeste 0 -- -- 87
2020-01-09 18:00:00 10.5 19 Oeste 26 Oeste 0 -- -- 84
2020-01-09 17:00:00 10.9 8 Sudoeste 15 Sudoeste 0 -- -- 83
2020-01-09 16:00:00 10.5 8 Sudoeste 31 Oeste 0 -- -- 85
2020-01-09 15:00:00 10.6 23 Oeste 35 Oeste 0 -- -- 82
2020-01-09 14:00:00 10.2 11 Sudoeste 21 Oeste 0 -- -- 74
2020-01-09 13:00:00 9.7 11 Sudoeste 20 Sudoeste 0 -- -- 61
2020-01-09 12:00:00 8.4 17 Sur 24 Sudoeste 0 -- -- 64
2020-01-09 11:00:00 6.7 16 Sur 22 Sur 0 -- -- 69
2020-01-09 10:00:00 3.5 11 Sur 14 Sur 0 -- -- 85
2020-01-09 09:00:00 1.4 3 Sudeste 19 Sudeste 0 -- -- 90
2020-01-09 08:00:00 0.5 14 Sudeste 21 Sudeste 0 -- -- 92
2020-01-09 07:00:00 0.1 8 Sudeste 10 Sudeste 0 -- -- 93
2020-01-09 06:00:00 -0.2 0 Calma 11 Este 0 -- -- 93
2020-01-09 05:00:00 1.4 13 Sudeste 18 Sudeste 0 -- -- 88
2020-01-09 04:00:00 1.2 8 Sudeste 15 Sudeste 0 -- -- 88
2020-01-09 03:00:00 0.5 6 Sudeste 11 Sudeste 0 -- -- 91
2020-01-09 02:00:00 1 5 Sudeste 9 Sudeste 0 -- -- 90
2020-01-09 01:00:00 1.5 6 Sudeste 9 Sudeste 0 -- -- 88
2020-01-09 00:00:00 2.1 4 Sudeste 6 Sudeste 0 -- -- 85
2020-01-08 23:00:00 2.6 8 Sudeste 13 Sudeste 0 -- -- 83
2020-01-08 22:00:00 2.9 2 Sudeste 8 Sudeste 0 -- -- 78
2020-01-08 21:00:00 3.1 2 Sudeste 4 Sudeste 0 -- -- 79
2020-01-08 20:00:00 4.7 0 Calma 4 Oeste 0 -- -- 75
2020-01-08 19:00:00 5.7 5 Oeste 9 Oeste 0 -- -- 62
2020-01-08 18:00:00 8.2 5 Sudoeste 11 Oeste 0 -- -- 65
2020-01-08 17:00:00 10 10 Oeste 13 Oeste 0 -- -- 61
2020-01-08 16:00:00 10.3 9 Oeste 12 Oeste 0 -- -- 57
2020-01-08 15:00:00 10 6 Oeste 14 Oeste 0 -- -- 56
2020-01-08 14:00:00 8.2 7 Oeste 10 Oeste 0 -- -- 65
2020-01-08 13:00:00 5.8 6 Oeste 10 Oeste 0 -- -- 72
2020-01-08 12:00:00 3 6 Oeste 8 Oeste 0.2 -- -- 92
2020-01-08 11:00:00 1.4 0 Calma 8 Este 0 -- -- 88
2020-01-08 10:00:00 -3 3 Sudeste 5 Sudeste 0 -- -- 97
2020-01-08 09:00:00 -3.8 5 Sudeste 5 Sudeste 0 -- -- 96
2020-01-08 08:00:00 -3.8 0 Calma 4 Oeste 0 -- -- 95
2020-01-08 07:00:00 -3.1 3 Noroeste 12 Sudeste 0 -- -- 93
2020-01-08 06:00:00 -3.8 4 Nordeste 9 Nordeste 0 -- -- 95
2020-01-08 05:00:00 -2.4 4 Norte 10 Sudeste 0 -- -- 94
2020-01-08 04:00:00 -1.1 3 Sudeste 16 Sudeste 0 -- -- 97
2020-01-08 03:00:00 -2.8 2 Este 12 Sudeste 0 -- -- 97
2020-01-08 02:00:00 -2.2 8 Sudeste 9 Sudeste 0 -- -- 99
2020-01-08 01:00:00 -3.4 3 Este 4 Sudeste 0 -- -- 98
2020-01-08 00:00:00 -3.8 0 Calma 2 Este 0 -- -- 97
2020-01-07 23:00:00 -3.2 0 Calma 4 Oeste 0 -- -- 96
2020-01-07 22:00:00 -2.7 3 Sudeste 6 Noroeste 0 -- -- 97
2020-01-07 21:00:00 -2.2 2 Nordeste 5 Sudoeste 0 -- -- 95
2020-01-07 20:00:00 -0.4 4 Oeste 5 Oeste 0 -- -- 92
2020-01-07 19:00:00 2.4 5 Noroeste 9 Oeste 0 -- -- 88
2020-01-07 18:00:00 5.3 6 Oeste 12 Oeste 0 -- -- 78
2020-01-07 17:00:00 7.9 8 Oeste 11 Oeste 0 -- -- 72
2020-01-07 16:00:00 7.7 3 Noroeste 7 Noroeste 0 -- -- 77
2020-01-07 15:00:00 5.4 4 Norte 5 Norte 0 -- -- 94
2020-01-07 14:00:00 2.9 3 Nordeste 8 Norte 0 -- -- 100
2020-01-07 13:00:00 -0.2 2 Norte 7 Noroeste 0 -- -- 99
2020-01-07 12:00:00 -2.1 0 Calma -- -- 0.2 -- -- 99
2020-01-07 11:00:00 -3.4 0 Calma -- -- 0 -- -- 98
2020-01-07 10:00:00 -4.3 0 Calma -- -- 0 -- -- 97
2020-01-07 09:00:00 -4.9 0 Calma -- -- 0 -- -- 97
2020-01-07 08:00:00 -5.3 0 Calma -- -- 0 -- -- 96
2020-01-07 07:00:00 -5.1 0 Calma -- -- 0 -- -- 96
2020-01-07 06:00:00 -4.5 0 Calma -- -- 0 -- -- 97
2020-01-07 05:00:00 -4.3 0 Calma -- -- 0 -- -- 97
2020-01-07 04:00:00 -3.9 0 Calma -- -- 0 -- -- 97
2020-01-07 03:00:00 -3.2 5 Sudeste 12 Sudeste 0 -- -- 97
2020-01-07 02:00:00 -3.7 4 Norte 7 Nordeste 0 -- -- 97
2020-01-07 01:00:00 -3.4 3 Norte 9 Este 0 -- -- 97
2020-01-07 00:00:00 -3.5 0 Calma 4 Este 0 -- -- 97
2020-01-06 23:00:00 -2.7 4 Noroeste 6 Noroeste 0 -- -- 97
2020-01-06 22:00:00 -2.4 0 Calma 6 Sudeste 0 -- -- 96
2020-01-06 21:00:00 -1.5 0 Calma 7 Oeste 0 -- -- 95
2020-01-06 20:00:00 1.1 2 Noroeste 6 Oeste 0 -- -- 92
2020-01-06 19:00:00 2.5 5 Noroeste 11 Noroeste 0 -- -- 90
2020-01-06 18:00:00 5.8 9 Noroeste 11 Noroeste 0 -- -- 82
2020-01-06 17:00:00 9.3 4 Noroeste 11 Noroeste 0 -- -- 67
2020-01-06 16:00:00 10.4 3 Oeste 8 Noroeste 0 -- -- 56
2020-01-06 15:00:00 8.8 4 Noroeste 10 Noroeste 0 -- -- 66
2020-01-06 14:00:00 7 3 Sur 12 Este 0 -- -- 96
2020-01-06 13:00:00 2.2 0 Calma 5 Noroeste 0 -- -- 100
2020-01-06 12:00:00 -0.6 5 Noroeste 10 Noroeste 0.2 -- -- 100
2020-01-06 11:00:00 -1.2 2 Noroeste 8 Noroeste 0 -- -- 100
2020-01-06 10:00:00 -2.8 0 Calma -- -- 0 -- -- 98